sensor_id;sensor_type;location;lat;lon;timestamp;P1;durP1;ratioP1;P2;durP2;ratioP2
10977;SDS011;5542;48.272;10.794;2022-08-21T00:00:41;1.08;;;1.08;;
10977;SDS011;5542;48.272;10.794;2022-08-21T00:03:08;1.10;;;1.10;;
10977;SDS011;5542;48.272;10.794;2022-08-21T00:05:36;1.17;;;1.17;;
10977;SDS011;5542;48.272;10.794;2022-08-21T00:08:05;1.30;;;1.30;;
10977;SDS011;5542;48.272;10.794;2022-08-21T00:10:32;1.10;;;1.10;;
10977;SDS011;5542;48.272;10.794;2022-08-21T00:13:00;1.50;;;1.40;;
10977;SDS011;5542;48.272;10.794;2022-08-21T00:15:29;1.10;;;1.00;;
10977;SDS011;5542;48.272;10.794;2022-08-21T00:17:57;1.20;;;1.20;;
10977;SDS011;5542;48.272;10.794;2022-08-21T00:20:24;1.17;;;1.17;;
10977;SDS011;5542;48.272;10.794;2022-08-21T00:22:51;1.67;;;1.10;;
10977;SDS011;5542;48.272;10.794;2022-08-21T00:25:19;1.40;;;1.30;;
10977;SDS011;5542;48.272;10.794;2022-08-21T00:27:46;0.90;;;0.90;;
10977;SDS011;5542;48.272;10.794;2022-08-21T00:30:15;1.00;;;1.00;;
10977;SDS011;5542;48.272;10.794;2022-08-21T00:32:43;1.05;;;1.05;;
10977;SDS011;5542;48.272;10.794;2022-08-21T00:35:11;1.25;;;1.23;;
10977;SDS011;5542;48.272;10.794;2022-08-21T00:37:40;1.40;;;1.30;;
10977;SDS011;5542;48.272;10.794;2022-08-21T00:40:09;1.10;;;1.10;;
10977;SDS011;5542;48.272;10.794;2022-08-21T00:42:38;1.08;;;1.08;;
10977;SDS011;5542;48.272;10.794;2022-08-21T00:45:05;1.02;;;1.02;;
10977;SDS011;5542;48.272;10.794;2022-08-21T00:47:34;1.10;;;1.10;;
10977;SDS011;5542;48.272;10.794;2022-08-21T00:50:01;0.90;;;0.90;;
10977;SDS011;5542;48.272;10.794;2022-08-21T00:52:30;1.10;;;1.10;;
10977;SDS011;5542;48.272;10.794;2022-08-21T00:54:59;1.42;;;1.38;;
10977;SDS011;5542;48.272;10.794;2022-08-21T00:57:27;1.20;;;1.10;;
10977;SDS011;5542;48.272;10.794;2022-08-21T00:59:58;1.50;;;1.20;;
10977;SDS011;5542;48.272;10.794;2022-08-21T01:02:27;2.08;;;1.20;;
10977;SDS011;5542;48.272;10.794;2022-08-21T01:04:55;1.00;;;1.00;;
10977;SDS011;5542;48.272;10.794;2022-08-21T01:07:22;1.20;;;1.20;;
10977;SDS011;5542;48.272;10.794;2022-08-21T01:09:50;0.80;;;0.80;;
10977;SDS011;5542;48.272;10.794;2022-08-21T01:12:17;0.80;;;0.80;;
10977;SDS011;5542;48.272;10.794;2022-08-21T01:14:44;1.10;;;1.10;;
10977;SDS011;5542;48.272;10.794;2022-08-21T01:17:11;0.80;;;0.80;;
10977;SDS011;5542;48.272;10.794;2022-08-21T01:19:41;0.95;;;0.95;;
10977;SDS011;5542;48.272;10.794;2022-08-21T01:22:09;1.40;;;1.23;;
10977;SDS011;5542;48.272;10.794;2022-08-21T01:24:35;0.90;;;0.90;;
10977;SDS011;5542;48.272;10.794;2022-08-21T01:27:03;0.80;;;0.80;;
10977;SDS011;5542;48.272;10.794;2022-08-21T01:29:31;1.13;;;1.13;;
10977;SDS011;5542;48.272;10.794;2022-08-21T01:32:03;0.90;;;0.90;;
10977;SDS011;5542;48.272;10.794;2022-08-21T01:34:33;1.10;;;1.10;;
10977;SDS011;5542;48.272;10.794;2022-08-21T01:37:03;1.00;;;1.00;;
10977;SDS011;5542;48.272;10.794;2022-08-21T01:39:31;1.48;;;1.25;;
10977;SDS011;5542;48.272;10.794;2022-08-21T01:41:58;1.27;;;1.17;;
10977;SDS011;5542;48.272;10.794;2022-08-21T01:44:25;0.80;;;0.80;;
10977;SDS011;5542;48.272;10.794;2022-08-21T01:46:52;0.68;;;0.68;;
10977;SDS011;5542;48.272;10.794;2022-08-21T01:49:19;1.35;;;1.25;;
10977;SDS011;5542;48.272;10.794;2022-08-21T01:51:45;1.02;;;1.02;;
10977;SDS011;5542;48.272;10.794;2022-08-21T01:54:12;1.10;;;1.10;;
10977;SDS011;5542;48.272;10.794;2022-08-21T01:56:41;0.98;;;0.98;;
10977;SDS011;5542;48.272;10.794;2022-08-21T01:59:11;1.23;;;1.20;;
10977;SDS011;5542;48.272;10.794;2022-08-21T02:01:38;1.42;;;1.33;;
10977;SDS011;5542;48.272;10.794;2022-08-21T02:04:05;0.93;;;0.93;;
10977;SDS011;5542;48.272;10.794;2022-08-21T02:06:32;0.98;;;0.98;;
10977;SDS011;5542;48.272;10.794;2022-08-21T02:08:59;1.00;;;1.00;;
10977;SDS011;5542;48.272;10.794;2022-08-21T02:11:26;0.93;;;0.73;;
10977;SDS011;5542;48.272;10.794;2022-08-21T02:13:54;1.10;;;1.10;;
10977;SDS011;5542;48.272;10.794;2022-08-21T02:16:20;0.97;;;0.97;;
10977;SDS011;5542;48.272;10.794;2022-08-21T02:18:47;1.20;;;1.20;;
10977;SDS011;5542;48.272;10.794;2022-08-21T02:21:13;0.98;;;0.90;;
10977;SDS011;5542;48.272;10.794;2022-08-21T02:23:40;1.60;;;1.50;;
10977;SDS011;5542;48.272;10.794;2022-08-21T02:26:07;0.90;;;0.90;;
10977;SDS011;5542;48.272;10.794;2022-08-21T02:28:34;1.05;;;1.05;;
10977;SDS011;5542;48.272;10.794;2022-08-21T02:31:03;0.98;;;0.98;;
10977;SDS011;5542;48.272;10.794;2022-08-21T02:33:31;1.30;;;1.30;;
10977;SDS011;5542;48.272;10.794;2022-08-21T02:35:58;1.20;;;1.20;;
10977;SDS011;5542;48.272;10.794;2022-08-21T02:38:26;1.00;;;1.00;;
10977;SDS011;5542;48.272;10.794;2022-08-21T02:40:54;2.42;;;1.40;;
10977;SDS011;5542;48.272;10.794;2022-08-21T02:43:22;1.00;;;1.00;;
10977;SDS011;5542;48.272;10.794;2022-08-21T02:45:51;1.25;;;1.20;;
10977;SDS011;5542;48.272;10.794;2022-08-21T02:48:20;1.15;;;1.15;;
10977;SDS011;5542;48.272;10.794;2022-08-21T02:50:51;1.48;;;1.20;;
10977;SDS011;5542;48.272;10.794;2022-08-21T02:53:20;1.10;;;1.10;;
10977;SDS011;5542;48.272;10.794;2022-08-21T02:55:47;1.00;;;1.00;;
10977;SDS011;5542;48.272;10.794;2022-08-21T02:58:16;1.02;;;1.02;;
10977;SDS011;5542;48.272;10.794;2022-08-21T03:00:45;0.80;;;0.80;;
10977;SDS011;5542;48.272;10.794;2022-08-21T03:03:11;1.02;;;1.02;;
10977;SDS011;5542;48.272;10.794;2022-08-21T03:05:41;0.85;;;0.85;;
10977;SDS011;5542;48.272;10.794;2022-08-21T03:08:09;0.80;;;0.80;;
10977;SDS011;5542;48.272;10.794;2022-08-21T03:10:38;1.20;;;1.20;;
10977;SDS011;5542;48.272;10.794;2022-08-21T03:13:07;1.08;;;1.08;;
10977;SDS011;5542;48.272;10.794;2022-08-21T03:15:33;1.30;;;1.30;;
10977;SDS011;5542;48.272;10.794;2022-08-21T03:18:01;1.35;;;1.35;;
10977;SDS011;5542;48.272;10.794;2022-08-21T03:20:29;1.00;;;1.00;;
10977;SDS011;5542;48.272;10.794;2022-08-21T03:22:58;0.90;;;0.90;;
10977;SDS011;5542;48.272;10.794;2022-08-21T03:25:26;1.53;;;1.30;;
10977;SDS011;5542;48.272;10.794;2022-08-21T03:27:53;1.38;;;1.38;;
10977;SDS011;5542;48.272;10.794;2022-08-21T03:30:20;1.08;;;1.08;;
10977;SDS011;5542;48.272;10.794;2022-08-21T03:32:47;1.45;;;1.38;;
10977;SDS011;5542;48.272;10.794;2022-08-21T03:35:14;1.40;;;1.30;;
10977;SDS011;5542;48.272;10.794;2022-08-21T03:37:41;0.90;;;0.90;;
10977;SDS011;5542;48.272;10.794;2022-08-21T03:40:10;1.10;;;1.10;;
10977;SDS011;5542;48.272;10.794;2022-08-21T03:42:38;1.05;;;1.05;;
10977;SDS011;5542;48.272;10.794;2022-08-21T03:45:05;0.90;;;0.90;;
10977;SDS011;5542;48.272;10.794;2022-08-21T03:47:32;0.80;;;0.80;;
10977;SDS011;5542;48.272;10.794;2022-08-21T03:50:00;0.80;;;0.80;;
10977;SDS011;5542;48.272;10.794;2022-08-21T03:52:26;0.90;;;0.90;;
10977;SDS011;5542;48.272;10.794;2022-08-21T03:54:53;0.60;;;0.60;;
10977;SDS011;5542;48.272;10.794;2022-08-21T03:57:21;0.85;;;0.80;;
10977;SDS011;5542;48.272;10.794;2022-08-21T03:59:47;0.80;;;0.80;;
10977;SDS011;5542;48.272;10.794;2022-08-21T04:02:15;0.75;;;0.75;;
10977;SDS011;5542;48.272;10.794;2022-08-21T04:04:46;0.82;;;0.82;;
10977;SDS011;5542;48.272;10.794;2022-08-21T04:07:13;0.80;;;0.80;;
10977;SDS011;5542;48.272;10.794;2022-08-21T04:09:39;0.63;;;0.63;;
10977;SDS011;5542;48.272;10.794;2022-08-21T04:12:06;0.90;;;0.90;;
10977;SDS011;5542;48.272;10.794;2022-08-21T04:14:34;0.80;;;0.80;;
10977;SDS011;5542;48.272;10.794;2022-08-21T04:17:01;0.82;;;0.82;;
10977;SDS011;5542;48.272;10.794;2022-08-21T04:19:27;0.90;;;0.90;;
10977;SDS011;5542;48.272;10.794;2022-08-21T04:21:54;0.70;;;0.70;;
10977;SDS011;5542;48.272;10.794;2022-08-21T04:24:21;1.30;;;1.20;;
10977;SDS011;5542;48.272;10.794;2022-08-21T04:26:47;0.88;;;0.88;;
10977;SDS011;5542;48.272;10.794;2022-08-21T04:29:15;1.25;;;1.23;;
10977;SDS011;5542;48.272;10.794;2022-08-21T04:31:43;1.00;;;1.00;;
10977;SDS011;5542;48.272;10.794;2022-08-21T04:34:09;1.23;;;1.15;;
10977;SDS011;5542;48.272;10.794;2022-08-21T04:36:36;1.50;;;1.40;;
10977;SDS011;5542;48.272;10.794;2022-08-21T04:39:02;1.40;;;1.40;;
10977;SDS011;5542;48.272;10.794;2022-08-21T04:41:29;1.45;;;1.35;;
10977;SDS011;5542;48.272;10.794;2022-08-21T04:43:56;0.90;;;0.90;;
10977;SDS011;5542;48.272;10.794;2022-08-21T04:46:23;1.20;;;1.20;;
10977;SDS011;5542;48.272;10.794;2022-08-21T04:48:51;1.20;;;1.20;;
10977;SDS011;5542;48.272;10.794;2022-08-21T04:51:18;1.50;;;1.50;;
10977;SDS011;5542;48.272;10.794;2022-08-21T04:53:50;1.15;;;1.15;;
10977;SDS011;5542;48.272;10.794;2022-08-21T04:56:19;1.13;;;1.13;;
10977;SDS011;5542;48.272;10.794;2022-08-21T04:58:49;1.50;;;1.40;;
10977;SDS011;5542;48.272;10.794;2022-08-21T05:01:18;0.95;;;0.95;;
10977;SDS011;5542;48.272;10.794;2022-08-21T05:03:47;1.10;;;1.10;;
10977;SDS011;5542;48.272;10.794;2022-08-21T05:06:18;1.15;;;1.15;;
10977;SDS011;5542;48.272;10.794;2022-08-21T05:08:46;0.90;;;0.90;;
10977;SDS011;5542;48.272;10.794;2022-08-21T05:11:14;1.00;;;1.00;;
10977;SDS011;5542;48.272;10.794;2022-08-21T05:13:41;1.35;;;1.33;;
10977;SDS011;5542;48.272;10.794;2022-08-21T05:16:08;1.17;;;1.17;;
10977;SDS011;5542;48.272;10.794;2022-08-21T05:18:34;1.65;;;1.55;;
10977;SDS011;5542;48.272;10.794;2022-08-21T05:21:01;1.13;;;1.13;;
10977;SDS011;5542;48.272;10.794;2022-08-21T05:23:29;1.30;;;1.30;;
10977;SDS011;5542;48.272;10.794;2022-08-21T05:25:56;1.20;;;1.20;;
10977;SDS011;5542;48.272;10.794;2022-08-21T05:28:23;1.27;;;1.17;;
10977;SDS011;5542;48.272;10.794;2022-08-21T05:30:50;1.27;;;1.25;;
10977;SDS011;5542;48.272;10.794;2022-08-21T05:33:17;1.17;;;0.90;;
10977;SDS011;5542;48.272;10.794;2022-08-21T05:35:43;1.15;;;1.15;;
10977;SDS011;5542;48.272;10.794;2022-08-21T05:38:10;1.30;;;1.30;;
10977;SDS011;5542;48.272;10.794;2022-08-21T05:40:39;1.40;;;1.40;;
10977;SDS011;5542;48.272;10.794;2022-08-21T05:43:05;1.23;;;1.20;;
10977;SDS011;5542;48.272;10.794;2022-08-21T05:45:32;1.50;;;1.40;;
10977;SDS011;5542;48.272;10.794;2022-08-21T05:48:05;1.38;;;1.25;;
10977;SDS011;5542;48.272;10.794;2022-08-21T05:50:32;1.10;;;1.10;;
10977;SDS011;5542;48.272;10.794;2022-08-21T05:52:58;1.27;;;1.17;;
10977;SDS011;5542;48.272;10.794;2022-08-21T05:55:25;1.40;;;1.40;;
10977;SDS011;5542;48.272;10.794;2022-08-21T05:57:53;1.55;;;1.35;;
10977;SDS011;5542;48.272;10.794;2022-08-21T06:00:20;1.40;;;1.30;;
10977;SDS011;5542;48.272;10.794;2022-08-21T06:02:48;1.63;;;1.52;;
10977;SDS011;5542;48.272;10.794;2022-08-21T06:05:15;1.48;;;1.38;;
10977;SDS011;5542;48.272;10.794;2022-08-21T06:07:42;1.40;;;1.40;;
10977;SDS011;5542;48.272;10.794;2022-08-21T06:10:09;1.60;;;1.50;;
10977;SDS011;5542;48.272;10.794;2022-08-21T06:12:36;1.95;;;1.85;;
10977;SDS011;5542;48.272;10.794;2022-08-21T06:15:04;1.50;;;1.40;;
10977;SDS011;5542;48.272;10.794;2022-08-21T06:17:31;1.52;;;1.42;;
10977;SDS011;5542;48.272;10.794;2022-08-21T06:19:58;1.73;;;1.63;;
10977;SDS011;5542;48.272;10.794;2022-08-21T06:22:24;1.77;;;1.67;;
10977;SDS011;5542;48.272;10.794;2022-08-21T06:24:51;1.50;;;1.40;;
10977;SDS011;5542;48.272;10.794;2022-08-21T06:27:17;2.15;;;1.63;;
10977;SDS011;5542;48.272;10.794;2022-08-21T06:29:44;2.10;;;1.50;;
10977;SDS011;5542;48.272;10.794;2022-08-21T06:32:12;2.03;;;1.92;;
10977;SDS011;5542;48.272;10.794;2022-08-21T06:34:39;1.60;;;1.50;;
10977;SDS011;5542;48.272;10.794;2022-08-21T06:37:07;1.30;;;1.30;;
10977;SDS011;5542;48.272;10.794;2022-08-21T06:39:34;1.73;;;1.63;;
10977;SDS011;5542;48.272;10.794;2022-08-21T06:42:01;1.90;;;1.80;;
10977;SDS011;5542;48.272;10.794;2022-08-21T06:44:28;1.70;;;1.60;;
10977;SDS011;5542;48.272;10.794;2022-08-21T06:46:55;1.75;;;1.65;;
10977;SDS011;5542;48.272;10.794;2022-08-21T06:49:23;2.55;;;1.80;;
10977;SDS011;5542;48.272;10.794;2022-08-21T06:51:49;1.90;;;1.80;;
10977;SDS011;5542;48.272;10.794;2022-08-21T06:54:16;1.90;;;1.80;;
10977;SDS011;5542;48.272;10.794;2022-08-21T06:56:43;1.43;;;1.33;;
10977;SDS011;5542;48.272;10.794;2022-08-21T06:59:09;1.73;;;1.63;;
10977;SDS011;5542;48.272;10.794;2022-08-21T07:01:36;1.63;;;1.53;;
10977;SDS011;5542;48.272;10.794;2022-08-21T07:04:03;1.70;;;1.60;;
10977;SDS011;5542;48.272;10.794;2022-08-21T07:06:31;2.45;;;1.83;;
10977;SDS011;5542;48.272;10.794;2022-08-21T07:08:57;2.03;;;1.83;;
10977;SDS011;5542;48.272;10.794;2022-08-21T07:11:26;1.90;;;1.80;;
10977;SDS011;5542;48.272;10.794;2022-08-21T07:13:53;1.90;;;1.80;;
10977;SDS011;5542;48.272;10.794;2022-08-21T07:16:21;1.90;;;1.80;;
10977;SDS011;5542;48.272;10.794;2022-08-21T07:18:48;2.67;;;2.00;;
10977;SDS011;5542;48.272;10.794;2022-08-21T07:21:15;2.13;;;2.03;;
10977;SDS011;5542;48.272;10.794;2022-08-21T07:23:45;2.70;;;2.00;;
10977;SDS011;5542;48.272;10.794;2022-08-21T07:26:14;1.95;;;1.85;;
10977;SDS011;5542;48.272;10.794;2022-08-21T07:28:42;2.00;;;1.80;;
10977;SDS011;5542;48.272;10.794;2022-08-21T07:31:10;1.75;;;1.65;;
10977;SDS011;5542;48.272;10.794;2022-08-21T07:33:39;2.03;;;1.85;;
10977;SDS011;5542;48.272;10.794;2022-08-21T07:36:06;2.80;;;1.80;;
10977;SDS011;5542;48.272;10.794;2022-08-21T07:38:33;1.85;;;1.75;;
10977;SDS011;5542;48.272;10.794;2022-08-21T07:41:02;2.75;;;1.70;;
10977;SDS011;5542;48.272;10.794;2022-08-21T07:43:33;2.53;;;2.10;;
10977;SDS011;5542;48.272;10.794;2022-08-21T07:45:59;2.00;;;1.90;;
10977;SDS011;5542;48.272;10.794;2022-08-21T07:48:26;1.73;;;1.63;;
10977;SDS011;5542;48.272;10.794;2022-08-21T07:50:53;2.03;;;1.92;;
10977;SDS011;5542;48.272;10.794;2022-08-21T07:53:20;2.15;;;2.05;;
10977;SDS011;5542;48.272;10.794;2022-08-21T07:55:47;2.40;;;2.30;;
10977;SDS011;5542;48.272;10.794;2022-08-21T07:58:15;3.23;;;2.67;;
10977;SDS011;5542;48.272;10.794;2022-08-21T08:00:42;3.20;;;2.55;;
10977;SDS011;5542;48.272;10.794;2022-08-21T08:03:08;2.70;;;2.50;;
10977;SDS011;5542;48.272;10.794;2022-08-21T08:05:35;2.05;;;1.95;;
10977;SDS011;5542;48.272;10.794;2022-08-21T08:08:04;2.27;;;2.10;;
10977;SDS011;5542;48.272;10.794;2022-08-21T08:10:31;2.30;;;2.20;;
10977;SDS011;5542;48.272;10.794;2022-08-21T08:12:57;2.85;;;2.65;;
10977;SDS011;5542;48.272;10.794;2022-08-21T08:15:26;2.30;;;2.20;;
10977;SDS011;5542;48.272;10.794;2022-08-21T08:17:54;2.50;;;2.30;;
10977;SDS011;5542;48.272;10.794;2022-08-21T08:20:21;2.40;;;2.20;;
10977;SDS011;5542;48.272;10.794;2022-08-21T08:22:48;2.25;;;2.03;;
10977;SDS011;5542;48.272;10.794;2022-08-21T08:25:15;2.13;;;1.97;;
10977;SDS011;5542;48.272;10.794;2022-08-21T08:27:42;2.60;;;2.40;;
10977;SDS011;5542;48.272;10.794;2022-08-21T08:30:10;2.37;;;2.20;;
10977;SDS011;5542;48.272;10.794;2022-08-21T08:32:40;2.25;;;2.05;;
10977;SDS011;5542;48.272;10.794;2022-08-21T08:35:08;2.93;;;2.50;;
10977;SDS011;5542;48.272;10.794;2022-08-21T08:37:36;2.30;;;2.20;;
10977;SDS011;5542;48.272;10.794;2022-08-21T08:40:05;2.47;;;2.38;;
10977;SDS011;5542;48.272;10.794;2022-08-21T08:42:33;3.33;;;2.45;;
10977;SDS011;5542;48.272;10.794;2022-08-21T08:45:02;2.70;;;2.50;;
10977;SDS011;5542;48.272;10.794;2022-08-21T08:47:33;2.90;;;2.70;;
10977;SDS011;5542;48.272;10.794;2022-08-21T08:50:06;2.47;;;2.38;;
10977;SDS011;5542;48.272;10.794;2022-08-21T08:52:39;2.75;;;2.47;;
10977;SDS011;5542;48.272;10.794;2022-08-21T08:55:09;2.83;;;2.63;;
10977;SDS011;5542;48.272;10.794;2022-08-21T08:57:42;2.20;;;2.10;;
10977;SDS011;5542;48.272;10.794;2022-08-21T09:00:13;2.90;;;2.60;;
10977;SDS011;5542;48.272;10.794;2022-08-21T09:02:42;2.70;;;2.50;;
10977;SDS011;5542;48.272;10.794;2022-08-21T09:05:15;2.90;;;2.60;;
10977;SDS011;5542;48.272;10.794;2022-08-21T09:07:53;2.70;;;2.50;;
10977;SDS011;5542;48.272;10.794;2022-08-21T09:10:43;2.78;;;2.58;;
10977;SDS011;5542;48.272;10.794;2022-08-21T09:13:17;2.60;;;2.40;;
10977;SDS011;5542;48.272;10.794;2022-08-21T09:15:51;2.78;;;2.58;;
10977;SDS011;5542;48.272;10.794;2022-08-21T09:18:29;2.72;;;2.55;;
10977;SDS011;5542;48.272;10.794;2022-08-21T09:21:09;3.70;;;2.53;;
10977;SDS011;5542;48.272;10.794;2022-08-21T09:23:43;3.28;;;3.00;;
10977;SDS011;5542;48.272;10.794;2022-08-21T09:26:19;2.38;;;2.28;;
10977;SDS011;5542;48.272;10.794;2022-08-21T09:28:49;2.20;;;2.10;;
10977;SDS011;5542;48.272;10.794;2022-08-21T09:31:21;2.47;;;2.30;;
10977;SDS011;5542;48.272;10.794;2022-08-21T09:33:50;2.45;;;2.35;;
10977;SDS011;5542;48.272;10.794;2022-08-21T09:36:27;2.03;;;1.93;;
10977;SDS011;5542;48.272;10.794;2022-08-21T09:39:03;2.60;;;2.40;;
10977;SDS011;5542;48.272;10.794;2022-08-21T09:41:32;2.53;;;2.33;;
10977;SDS011;5542;48.272;10.794;2022-08-21T09:44:01;2.58;;;2.45;;
10977;SDS011;5542;48.272;10.794;2022-08-21T09:46:29;2.92;;;2.60;;
10977;SDS011;5542;48.272;10.794;2022-08-21T09:48:56;2.58;;;2.40;;
10977;SDS011;5542;48.272;10.794;2022-08-21T09:51:26;2.30;;;2.20;;
10977;SDS011;5542;48.272;10.794;2022-08-21T09:53:55;2.88;;;2.67;;
10977;SDS011;5542;48.272;10.794;2022-08-21T09:56:27;2.50;;;2.40;;
10977;SDS011;5542;48.272;10.794;2022-08-21T09:59:14;2.90;;;2.60;;
10977;SDS011;5542;48.272;10.794;2022-08-21T10:01:43;2.88;;;2.58;;
10977;SDS011;5542;48.272;10.794;2022-08-21T10:04:11;2.50;;;2.30;;
10977;SDS011;5542;48.272;10.794;2022-08-21T10:06:39;2.58;;;2.40;;
10977;SDS011;5542;48.272;10.794;2022-08-21T10:09:06;2.40;;;2.30;;
10977;SDS011;5542;48.272;10.794;2022-08-21T10:11:35;2.90;;;2.63;;
10977;SDS011;5542;48.272;10.794;2022-08-21T10:14:06;2.63;;;2.50;;
10977;SDS011;5542;48.272;10.794;2022-08-21T10:16:42;2.42;;;2.25;;
10977;SDS011;5542;48.272;10.794;2022-08-21T10:19:21;2.83;;;2.53;;
10977;SDS011;5542;48.272;10.794;2022-08-21T10:22:00;2.53;;;2.33;;
10977;SDS011;5542;48.272;10.794;2022-08-21T10:24:36;2.10;;;2.00;;
10977;SDS011;5542;48.272;10.794;2022-08-21T10:27:12;2.13;;;2.03;;
10977;SDS011;5542;48.272;10.794;2022-08-21T10:29:47;2.03;;;1.92;;
10977;SDS011;5542;48.272;10.794;2022-08-21T10:32:27;3.08;;;2.28;;
10977;SDS011;5542;48.272;10.794;2022-08-21T10:35:06;2.13;;;2.00;;
10977;SDS011;5542;48.272;10.794;2022-08-21T10:37:42;2.10;;;2.00;;
10977;SDS011;5542;48.272;10.794;2022-08-21T10:40:21;1.90;;;1.80;;
10977;SDS011;5542;48.272;10.794;2022-08-21T10:42:56;2.40;;;2.20;;
10977;SDS011;5542;48.272;10.794;2022-08-21T10:45:37;2.23;;;2.03;;
10977;SDS011;5542;48.272;10.794;2022-08-21T10:48:15;2.67;;;2.47;;
10977;SDS011;5542;48.272;10.794;2022-08-21T10:50:50;2.70;;;2.50;;
10977;SDS011;5542;48.272;10.794;2022-08-21T10:53:28;2.45;;;2.25;;
10977;SDS011;5542;48.272;10.794;2022-08-21T10:56:13;2.03;;;1.90;;
10977;SDS011;5542;48.272;10.794;2022-08-21T10:58:45;2.40;;;2.30;;
10977;SDS011;5542;48.272;10.794;2022-08-21T11:01:20;2.47;;;2.27;;
10977;SDS011;5542;48.272;10.794;2022-08-21T11:03:54;2.30;;;2.20;;
10977;SDS011;5542;48.272;10.794;2022-08-21T11:06:31;2.08;;;1.98;;
10977;SDS011;5542;48.272;10.794;2022-08-21T11:09:04;2.07;;;1.97;;
10977;SDS011;5542;48.272;10.794;2022-08-21T11:11:36;2.08;;;1.98;;
10977;SDS011;5542;48.272;10.794;2022-08-21T11:14:09;1.80;;;1.70;;
10977;SDS011;5542;48.272;10.794;2022-08-21T11:16:39;2.28;;;2.10;;
10977;SDS011;5542;48.272;10.794;2022-08-21T11:19:12;2.10;;;1.90;;
10977;SDS011;5542;48.272;10.794;2022-08-21T11:21:44;2.20;;;2.00;;
10977;SDS011;5542;48.272;10.794;2022-08-21T11:24:19;2.28;;;2.17;;
10977;SDS011;5542;48.272;10.794;2022-08-21T11:26:57;2.43;;;2.33;;
10977;SDS011;5542;48.272;10.794;2022-08-21T11:29:30;1.73;;;1.63;;
10977;SDS011;5542;48.272;10.794;2022-08-21T11:32:03;1.90;;;1.80;;
10977;SDS011;5542;48.272;10.794;2022-08-21T11:34:47;1.42;;;1.40;;
10977;SDS011;5542;48.272;10.794;2022-08-21T11:37:26;1.75;;;1.65;;
10977;SDS011;5542;48.272;10.794;2022-08-21T11:40:15;1.70;;;1.60;;
10977;SDS011;5542;48.272;10.794;2022-08-21T11:42:52;1.92;;;1.83;;
10977;SDS011;5542;48.272;10.794;2022-08-21T11:45:28;2.00;;;1.90;;
10977;SDS011;5542;48.272;10.794;2022-08-21T11:48:04;2.22;;;2.03;;
10977;SDS011;5542;48.272;10.794;2022-08-21T11:50:37;2.13;;;2.03;;
10977;SDS011;5542;48.272;10.794;2022-08-21T11:53:08;2.05;;;1.95;;
10977;SDS011;5542;48.272;10.794;2022-08-21T11:55:40;2.60;;;2.40;;
10977;SDS011;5542;48.272;10.794;2022-08-21T11:58:11;2.30;;;2.10;;
10977;SDS011;5542;48.272;10.794;2022-08-21T12:00:43;2.35;;;2.15;;
10977;SDS011;5542;48.272;10.794;2022-08-21T12:03:16;2.13;;;2.03;;
10977;SDS011;5542;48.272;10.794;2022-08-21T12:05:52;2.05;;;1.92;;
10977;SDS011;5542;48.272;10.794;2022-08-21T12:08:26;2.28;;;2.08;;
10977;SDS011;5542;48.272;10.794;2022-08-21T12:11:00;1.90;;;1.80;;
10977;SDS011;5542;48.272;10.794;2022-08-21T12:13:31;1.90;;;1.80;;
10977;SDS011;5542;48.272;10.794;2022-08-21T12:16:06;2.03;;;1.92;;
10977;SDS011;5542;48.272;10.794;2022-08-21T12:18:34;2.35;;;2.15;;
10977;SDS011;5542;48.272;10.794;2022-08-21T12:21:05;2.80;;;2.60;;
10977;SDS011;5542;48.272;10.794;2022-08-21T12:23:44;2.63;;;2.42;;
10977;SDS011;5542;48.272;10.794;2022-08-21T12:26:24;3.60;;;2.20;;
10977;SDS011;5542;48.272;10.794;2022-08-21T12:29:03;2.40;;;2.20;;
10977;SDS011;5542;48.272;10.794;2022-08-21T12:31:33;2.10;;;2.00;;
10977;SDS011;5542;48.272;10.794;2022-08-21T12:34:01;2.22;;;2.10;;
10977;SDS011;5542;48.272;10.794;2022-08-21T12:36:38;2.35;;;2.25;;
10977;SDS011;5542;48.272;10.794;2022-08-21T12:39:11;2.80;;;2.50;;
10977;SDS011;5542;48.272;10.794;2022-08-21T12:41:45;2.15;;;2.05;;
10977;SDS011;5542;48.272;10.794;2022-08-21T12:44:17;2.80;;;2.25;;
10977;SDS011;5542;48.272;10.794;2022-08-21T12:46:51;2.50;;;2.30;;
10977;SDS011;5542;48.272;10.794;2022-08-21T12:49:24;2.10;;;2.00;;
10977;SDS011;5542;48.272;10.794;2022-08-21T12:51:56;2.42;;;2.22;;
10977;SDS011;5542;48.272;10.794;2022-08-21T12:54:28;2.42;;;2.30;;
10977;SDS011;5542;48.272;10.794;2022-08-21T12:56:59;2.40;;;2.17;;
10977;SDS011;5542;48.272;10.794;2022-08-21T12:59:27;2.40;;;2.20;;
10977;SDS011;5542;48.272;10.794;2022-08-21T13:01:54;2.00;;;1.80;;
10977;SDS011;5542;48.272;10.794;2022-08-21T13:04:23;2.00;;;1.90;;
10977;SDS011;5542;48.272;10.794;2022-08-21T13:06:58;2.10;;;2.00;;
10977;SDS011;5542;48.272;10.794;2022-08-21T13:09:27;2.00;;;1.90;;
10977;SDS011;5542;48.272;10.794;2022-08-21T13:11:55;2.30;;;2.10;;
10977;SDS011;5542;48.272;10.794;2022-08-21T13:14:28;1.95;;;1.85;;
10977;SDS011;5542;48.272;10.794;2022-08-21T13:16:57;2.33;;;2.17;;
10977;SDS011;5542;48.272;10.794;2022-08-21T13:19:25;2.50;;;2.30;;
10977;SDS011;5542;48.272;10.794;2022-08-21T13:21:55;2.10;;;2.00;;
10977;SDS011;5542;48.272;10.794;2022-08-21T13:24:22;2.20;;;2.10;;
10977;SDS011;5542;48.272;10.794;2022-08-21T13:26:50;1.92;;;1.83;;
10977;SDS011;5542;48.272;10.794;2022-08-21T13:29:18;2.50;;;2.30;;
10977;SDS011;5542;48.272;10.794;2022-08-21T13:31:49;2.05;;;1.85;;
10977;SDS011;5542;48.272;10.794;2022-08-21T13:34:19;1.95;;;1.85;;
10977;SDS011;5542;48.272;10.794;2022-08-21T13:36:48;1.85;;;1.75;;
10977;SDS011;5542;48.272;10.794;2022-08-21T13:39:18;2.10;;;2.00;;
10977;SDS011;5542;48.272;10.794;2022-08-21T13:41:49;2.33;;;2.13;;
10977;SDS011;5542;48.272;10.794;2022-08-21T13:44:18;1.90;;;1.80;;
10977;SDS011;5542;48.272;10.794;2022-08-21T13:46:47;1.98;;;1.88;;
10977;SDS011;5542;48.272;10.794;2022-08-21T13:49:16;1.87;;;1.77;;
10977;SDS011;5542;48.272;10.794;2022-08-21T13:51:45;2.17;;;2.08;;
10977;SDS011;5542;48.272;10.794;2022-08-21T13:54:16;2.17;;;1.98;;
10977;SDS011;5542;48.272;10.794;2022-08-21T13:56:49;2.15;;;2.05;;
10977;SDS011;5542;48.272;10.794;2022-08-21T13:59:23;2.30;;;2.20;;
10977;SDS011;5542;48.272;10.794;2022-08-21T14:01:52;2.20;;;2.00;;
10977;SDS011;5542;48.272;10.794;2022-08-21T14:04:25;2.20;;;2.10;;
10977;SDS011;5542;48.272;10.794;2022-08-21T14:06:57;2.25;;;2.15;;
10977;SDS011;5542;48.272;10.794;2022-08-21T14:09:26;2.20;;;2.10;;
10977;SDS011;5542;48.272;10.794;2022-08-21T14:11:56;2.10;;;2.00;;
10977;SDS011;5542;48.272;10.794;2022-08-21T14:14:26;2.45;;;2.30;;
10977;SDS011;5542;48.272;10.794;2022-08-21T14:16:57;2.30;;;2.10;;
10977;SDS011;5542;48.272;10.794;2022-08-21T14:19:26;2.22;;;2.13;;
10977;SDS011;5542;48.272;10.794;2022-08-21T14:22:01;3.63;;;1.77;;
10977;SDS011;5542;48.272;10.794;2022-08-21T14:24:29;2.10;;;2.00;;
10977;SDS011;5542;48.272;10.794;2022-08-21T14:26:58;1.77;;;1.67;;
10977;SDS011;5542;48.272;10.794;2022-08-21T14:29:32;2.10;;;2.00;;
10977;SDS011;5542;48.272;10.794;2022-08-21T14:32:08;2.05;;;1.90;;
10977;SDS011;5542;48.272;10.794;2022-08-21T14:34:36;2.00;;;1.90;;
10977;SDS011;5542;48.272;10.794;2022-08-21T14:37:03;1.90;;;1.80;;
10977;SDS011;5542;48.272;10.794;2022-08-21T14:39:29;2.72;;;2.33;;
10977;SDS011;5542;48.272;10.794;2022-08-21T14:41:59;2.30;;;2.20;;
10977;SDS011;5542;48.272;10.794;2022-08-21T14:44:26;1.83;;;1.73;;
10977;SDS011;5542;48.272;10.794;2022-08-21T14:46:53;2.83;;;2.63;;
10977;SDS011;5542;48.272;10.794;2022-08-21T14:49:22;2.30;;;2.20;;
10977;SDS011;5542;48.272;10.794;2022-08-21T14:51:51;2.13;;;1.92;;
10977;SDS011;5542;48.272;10.794;2022-08-21T14:54:21;1.90;;;1.80;;
10977;SDS011;5542;48.272;10.794;2022-08-21T14:56:48;1.70;;;1.60;;
10977;SDS011;5542;48.272;10.794;2022-08-21T14:59:16;2.05;;;1.85;;
10977;SDS011;5542;48.272;10.794;2022-08-21T15:01:42;1.90;;;1.80;;